Wetterdaten: Woche 13.08.07 - 19.08.07 (KW33)
Datum Zeit Temperatur Luftfeuchte Luftdruck Niederschlag Wind Richtung Sonnenschein Solar Taupunkt Windchill Windben
13.08.2007 00:00 17.5 C 93 % 1010.7 hPa 0.0 l/m 0.3 km/h (0 Bft) O 0.00 h 0 W/m 16.4 C 17.5 C 0.9 km/h (0 Bft)
13.08.2007 01:00 17.7 C 89 % 1010.7 hPa 0.0 l/m 3.4 km/h (1 Bft) SO 0.00 h 0 W/m 15.9 C 17.7 C 5.5 km/h (1 Bft)
13.08.2007 02:00 17.0 C 89 % 1010.7 hPa 0.2 l/m 2.4 km/h (1 Bft) SO 0.00 h 0 W/m 15.1 C 17.0 C 4.2 km/h (1 Bft)
13.08.2007 03:00 16.7 C 90 % 1011.0 hPa 0.0 l/m 2.6 km/h (1 Bft) SO 0.00 h 0 W/m 15.1 C 16.7 C 4.3 km/h (1 Bft)
13.08.2007 04:00 16.4 C 93 % 1011.1 hPa 0.0 l/m 2.0 km/h (1 Bft) O-SO 0.00 h 0 W/m 15.2 C 16.4 C 3.8 km/h (1 Bft)
13.08.2007 05:00 15.9 C 95 % 1011.2 hPa 0.0 l/m 1.0 km/h (0 Bft) O-SO 0.00 h 0 W/m 15.2 C 15.9 C 2.0 km/h (1 Bft)
13.08.2007 06:00 15.4 C 97 % 1011.6 hPa 0.0 l/m 1.7 km/h (1 Bft) SO 0.00 h 10 W/m 14.9 C 15.4 C 3.4 km/h (1 Bft)
13.08.2007 07:00 15.6 C 98 % 1011.9 hPa 0.0 l/m 1.7 km/h (1 Bft) SO 0.00 h 61 W/m 15.2 C 15.6 C 3.3 km/h (1 Bft)
13.08.2007 08:00 17.2 C 93 % 1012.3 hPa 0.0 l/m 1.4 km/h (1 Bft) S-SO 0.98 h 249 W/m 16.1 C 17.2 C 3.4 km/h (1 Bft)
13.08.2007 09:00 19.2 C 86 % 1012.4 hPa 0.0 l/m 0.9 km/h (0 Bft) W-NW 0.73 h 358 W/m 16.8 C 19.2 C 2.5 km/h (1 Bft)
13.08.2007 10:00 20.8 C 76 % 1012.6 hPa 0.0 l/m 5.2 km/h (1 Bft) W 0.75 h 519 W/m 16.5 C 20.8 C 8.5 km/h (2 Bft)
13.08.2007 11:00 22.2 C 69 % 1012.6 hPa 0.0 l/m 6.8 km/h (2 Bft) W-NW 0.95 h 670 W/m 16.3 C 22.2 C 10.3 km/h (2 Bft)
13.08.2007 12:00 23.3 C 65 % 1012.6 hPa 0.0 l/m 5.3 km/h (1 Bft) W-SW 1.00 h 759 W/m 16.4 C 23.3 C 9.2 km/h (2 Bft)
13.08.2007 13:00 24.3 C 60 % 1012.2 hPa 0.0 l/m 6.0 km/h (2 Bft) W 1.00 h 785 W/m 16.1 C 24.3 C 9.6 km/h (2 Bft)
13.08.2007 14:00 25.5 C 56 % 1011.9 hPa 0.0 l/m 6.1 km/h (2 Bft) W 1.00 h 760 W/m 15.9 C 25.5 C 9.1 km/h (2 Bft)
13.08.2007 15:00 26.0 C 52 % 1011.8 hPa 0.0 l/m 6.4 km/h (2 Bft) W 0.95 h 683 W/m 15.4 C 26.0 C 9.9 km/h (2 Bft)
13.08.2007 16:00 26.3 C 52 % 1011.4 hPa 0.0 l/m 4.8 km/h (1 Bft) W 1.00 h 571 W/m 15.6 C 26.3 C 7.9 km/h (2 Bft)
13.08.2007 17:00 25.9 C 53 % 1011.5 hPa 0.0 l/m 5.0 km/h (1 Bft) W 0.93 h 394 W/m 15.5 C 25.9 C 7.6 km/h (2 Bft)
13.08.2007 18:00 23.9 C 60 % 1011.7 hPa 0.0 l/m 2.6 km/h (1 Bft) W-SW 0.23 h 152 W/m 15.7 C 23.9 C 5.0 km/h (1 Bft)
13.08.2007 19:00 23.9 C 61 % 1011.7 hPa 0.0 l/m 2.0 km/h (1 Bft) W 0.30 h 98 W/m 15.9 C 23.9 C 3.6 km/h (1 Bft)
13.08.2007 20:00 22.1 C 70 % 1011.8 hPa 0.0 l/m 1.1 km/h (1 Bft) O-SO 0.00 h 10 W/m 16.3 C 22.1 C 2.1 km/h (1 Bft)
13.08.2007 21:00 20.7 C 79 % 1012.4 hPa 0.0 l/m 0.5 km/h (0 Bft) O-SO 0.00 h 0 W/m 16.9 C 20.7 C 1.4 km/h (1 Bft)
13.08.2007 22:00 19.4 C 83 % 1013.1 hPa 0.0 l/m 1.9 km/h (1 Bft) S-SO 0.00 h 0 W/m 16.5 C 19.4 C 3.5 km/h (1 Bft)
13.08.2007 23:00 18.9 C 88 % 1013.3 hPa 0.2 l/m 0.9 km/h (0 Bft) SO 0.00 h 0 W/m 16.8 C 18.9 C 2.0 km/h (1 Bft)
14.08.2007 00:00 18.2 C 94 % 1013.5 hPa 0.8 l/m 0.2 km/h (0 Bft) NO 0.00 h 0 W/m 17.2 C 18.2 C 0.8 km/h (0 Bft)
14.08.2007 01:00 17.7 C 98 % 1013.5 hPa 0.0 l/m 0.0 km/h (0 Bft) N 0.00 h 0 W/m 17.4 C 17.7 C 0.1 km/h (0 Bft)
14.08.2007 02:00 17.5 C 100 % 1013.1 hPa 0.0 l/m 0.0 km/h (0 Bft) N 0.00 h 0 W/m 17.5 C 17.5 C 0.3 km/h (0 Bft)
14.08.2007 03:00 17.2 C 100 % 1013.0 hPa 0.0 l/m 1.0 km/h (0 Bft) SO 0.00 h 0 W/m 17.2 C 17.2 C 2.3 km/h (1 Bft)
14.08.2007 04:00 17.1 C 100 % 1012.6 hPa 0.0 l/m 0.3 km/h (0 Bft) SO 0.00 h 0 W/m 17.0 C 17.1 C 0.8 km/h (0 Bft)
14.08.2007 05:00 17.0 C 100 % 1012.6 hPa 0.0 l/m 0.3 km/h (0 Bft) W 0.00 h 0 W/m 17.0 C 17.0 C 0.7 km/h (0 Bft)
14.08.2007 06:00 16.9 C 100 % 1012.9 hPa 0.0 l/m 0.3 km/h (0 Bft) W 0.00 h 7 W/m 16.9 C 16.9 C 0.6 km/h (0 Bft)
14.08.2007 07:00 17.1 C 99 % 1013.1 hPa 0.0 l/m 0.1 km/h (0 Bft) W 0.00 h 44 W/m 17.0 C 17.1 C 0.5 km/h (0 Bft)
14.08.2007 08:00 17.4 C 99 % 1013.1 hPa 0.0 l/m 1.0 km/h (0 Bft) W-NW 0.00 h 93 W/m 17.2 C 17.4 C 2.2 km/h (1 Bft)
14.08.2007 09:00 18.0 C 96 % 1013.3 hPa 0.0 l/m 1.0 km/h (0 Bft) W-NW 0.00 h 159 W/m 17.4 C 18.0 C 2.5 km/h (1 Bft)
14.08.2007 10:00 19.2 C 89 % 1013.5 hPa 0.0 l/m 1.5 km/h (1 Bft) W 0.38 h 376 W/m 17.4 C 19.2 C 2.9 km/h (1 Bft)
14.08.2007 11:00 21.0 C 83 % 1013.3 hPa 0.0 l/m 1.3 km/h (1 Bft) W-NW 0.52 h 499 W/m 18.0 C 21.0 C 2.9 km/h (1 Bft)
14.08.2007 12:00 22.6 C 78 % 1012.9 hPa 0.0 l/m 2.4 km/h (1 Bft) W-NW 0.93 h 670 W/m 18.5 C 22.6 C 4.2 km/h (1 Bft)
14.08.2007 13:00 24.8 C 68 % 1012.2 hPa 0.0 l/m 2.8 km/h (1 Bft) W-NW 1.00 h 797 W/m 18.4 C 24.8 C 5.1 km/h (1 Bft)
14.08.2007 14:00 25.4 C 65 % 1011.8 hPa 0.0 l/m 3.4 km/h (1 Bft) W 0.70 h 562 W/m 18.3 C 25.4 C 6.4 km/h (2 Bft)
14.08.2007 15:00 26.3 C 63 % 1011.3 hPa 0.0 l/m 3.5 km/h (1 Bft) W-SW 0.73 h 606 W/m 18.5 C 26.3 C 7.0 km/h (2 Bft)
14.08.2007 16:00 26.4 C 59 % 1010.8 hPa 0.2 l/m 3.8 km/h (1 Bft) W 0.55 h 409 W/m 17.7 C 26.4 C 7.4 km/h (2 Bft)
14.08.2007 17:00 26.3 C 59 % 1010.6 hPa 0.0 l/m 3.9 km/h (1 Bft) W-SW 0.52 h 324 W/m 17.7 C 26.3 C 7.9 km/h (2 Bft)
14.08.2007 18:00 26.6 C 58 % 1010.3 hPa 0.0 l/m 3.0 km/h (1 Bft) W-SW 1.00 h 278 W/m 17.7 C 26.6 C 6.2 km/h (2 Bft)
14.08.2007 19:00 25.6 C 56 % 1010.3 hPa 0.0 l/m 1.6 km/h (1 Bft) SW 0.77 h 122 W/m 16.3 C 25.6 C 3.9 km/h (1 Bft)
14.08.2007 20:00 23.7 C 55 % 1010.6 hPa 0.0 l/m 2.6 km/h (1 Bft) S-SO 0.00 h 12 W/m 14.1 C 23.7 C 5.0 km/h (1 Bft)
14.08.2007 21:00 21.1 C 67 % 1011.1 hPa 0.0 l/m 2.2 km/h (1 Bft) SO 0.00 h 0 W/m 14.8 C 21.1 C 3.8 km/h (1 Bft)
14.08.2007 22:00 19.0 C 81 % 1011.6 hPa 0.0 l/m 0.2 km/h (0 Bft) O-SO 0.00 h 0 W/m 15.6 C 19.0 C 0.6 km/h (0 Bft)
14.08.2007 23:00 17.7 C 88 % 1011.7 hPa 0.0 l/m 0.4 km/h (0 Bft) O-SO 0.00 h 0 W/m 15.7 C 17.7 C 0.8 km/h (0 Bft)
15.08.2007 00:00 17.2 C 90 % 1011.5 hPa 0.0 l/m 0.1 km/h (0 Bft) O-SO 0.00 h 0 W/m 15.6 C 17.2 C 0.2 km/h (0 Bft)
15.08.2007 01:00 17.2 C 92 % 1011.4 hPa 0.0 l/m 0.0 km/h (0 Bft) N 0.00 h 0 W/m 15.9 C 17.2 C 0.1 km/h (0 Bft)
15.08.2007 02:00 17.5 C 92 % 1011.5 hPa 0.0 l/m 0.9 km/h (0 Bft) O-SO 0.00 h 0 W/m 16.2 C 17.5 C 2.0 km/h (1 Bft)
15.08.2007 03:00 17.7 C 93 % 1011.3 hPa 0.0 l/m 1.0 km/h (0 Bft) O-NO 0.00 h 0 W/m 16.6 C 17.7 C 2.1 km/h (1 Bft)
15.08.2007 04:00 17.8 C 95 % 1011.1 hPa 0.0 l/m 0.6 km/h (0 Bft) O-SO 0.00 h 0 W/m 16.9 C 17.8 C 1.4 km/h (1 Bft)
15.08.2007 05:00 18.0 C 92 % 1011.0 hPa 0.0 l/m 1.2 km/h (1 Bft) O-SO 0.00 h 0 W/m 16.8 C 18.0 C 1.9 km/h (1 Bft)
15.08.2007 06:00 17.4 C 96 % 1010.9 hPa 0.0 l/m 0.1 km/h (0 Bft) O-NO 0.00 h 9 W/m 16.7 C 17.4 C 0.7 km/h (0 Bft)
15.08.2007 07:00 18.3 C 93 % 1010.8 hPa 0.0 l/m 0.4 km/h (0 Bft) O-NO 0.00 h 50 W/m 17.0 C 18.3 C 1.3 km/h (1 Bft)
15.08.2007 08:00 19.5 C 88 % 1011.0 hPa 0.0 l/m 0.2 km/h (0 Bft) O-NO 0.45 h 207 W/m 17.5 C 19.5 C 0.7 km/h (0 Bft)
15.08.2007 09:00 22.9 C 75 % 1010.9 hPa 0.0 l/m 1.2 km/h (1 Bft) O-SO 1.00 h 429 W/m 18.2 C 22.9 C 2.4 km/h (1 Bft)
15.08.2007 10:00 24.9 C 66 % 1010.8 hPa 0.0 l/m 2.7 km/h (1 Bft) S-SO 1.00 h 548 W/m 18.1 C 24.9 C 5.1 km/h (1 Bft)
15.08.2007 11:00 26.3 C 60 % 1010.6 hPa 0.0 l/m 3.6 km/h (1 Bft) S-SO 1.00 h 665 W/m 17.8 C 26.3 C 7.5 km/h (2 Bft)
15.08.2007 12:00 27.4 C 59 % 1009.6 hPa 0.0 l/m 2.5 km/h (1 Bft) W 1.00 h 740 W/m 18.5 C 27.4 C 5.5 km/h (1 Bft)
15.08.2007 13:00 28.6 C 53 % 1008.6 hPa 0.0 l/m 2.6 km/h (1 Bft) O-SO 1.00 h 774 W/m 18.1 C 28.6 C 5.0 km/h (1 Bft)
15.08.2007 14:00 30.0 C 50 % 1007.7 hPa 0.0 l/m 3.1 km/h (1 Bft) SO 1.00 h 757 W/m 18.4 C 30.0 C 5.9 km/h (2 Bft)
15.08.2007 15:00 30.9 C 47 % 1007.2 hPa 0.0 l/m 2.4 km/h (1 Bft) W-SW 0.87 h 711 W/m 18.4 C 30.9 C 4.9 km/h (1 Bft)
15.08.2007 16:00 31.2 C 49 % 1006.6 hPa 0.0 l/m 4.8 km/h (1 Bft) W 0.92 h 580 W/m 19.1 C 31.2 C 8.7 km/h (2 Bft)
15.08.2007 17:00 31.0 C 48 % 1006.5 hPa 0.0 l/m 4.2 km/h (1 Bft) SW 1.00 h 497 W/m 18.7 C 31.0 C 7.7 km/h (2 Bft)
15.08.2007 18:00 29.5 C 50 % 1006.1 hPa 0.0 l/m 3.2 km/h (1 Bft) S-SO 0.33 h 191 W/m 17.9 C 29.5 C 7.1 km/h (2 Bft)
15.08.2007 19:00 28.0 C 55 % 1005.7 hPa 0.0 l/m 3.9 km/h (1 Bft) S-SO 0.00 h 56 W/m 17.9 C 28.0 C 6.6 km/h (2 Bft)
15.08.2007 20:00 26.7 C 60 % 1005.6 hPa 0.0 l/m 2.3 km/h (1 Bft) S-SO 0.00 h 16 W/m 18.3 C 26.7 C 4.0 km/h (1 Bft)
15.08.2007 21:00 25.1 C 71 % 1005.5 hPa 0.0 l/m 0.3 km/h (0 Bft) S 0.00 h 0 W/m 19.4 C 25.1 C 1.1 km/h (0 Bft)
15.08.2007 22:00 23.4 C 82 % 1005.9 hPa 0.2 l/m 4.2 km/h (1 Bft) O-SO 0.00 h 0 W/m 20.1 C 23.4 C 6.2 km/h (2 Bft)
15.08.2007 23:00 22.1 C 90 % 1005.8 hPa 0.4 l/m 1.7 km/h (1 Bft) O-SO 0.00 h 0 W/m 20.4 C 22.1 C 3.4 km/h (1 Bft)
16.08.2007 00:00 21.3 C 96 % 1005.6 hPa 0.0 l/m 1.7 km/h (1 Bft) O-SO 0.00 h 0 W/m 20.7 C 21.3 C 2.6 km/h (1 Bft)
16.08.2007 01:00 20.9 C 98 % 1005.9 hPa 0.0 l/m 0.5 km/h (0 Bft) O-SO 0.00 h 0 W/m 20.5 C 20.9 C 1.4 km/h (1 Bft)
16.08.2007 02:00 20.6 C 99 % 1006.0 hPa 0.0 l/m 2.2 km/h (1 Bft) O-SO 0.00 h 0 W/m 20.5 C 20.6 C 3.2 km/h (1 Bft)
16.08.2007 03:00 21.1 C 81 % 1006.5 hPa 0.2 l/m 11.6 km/h (2 Bft) W-NW 0.00 h 0 W/m 17.6 C 21.1 C 17.9 km/h (3 Bft)
16.08.2007 04:00 20.8 C 68 % 1007.8 hPa 0.0 l/m 19.9 km/h (4 Bft) W 0.00 h 0 W/m 14.8 C 20.8 C 29.0 km/h (5 Bft)
16.08.2007 05:00 19.2 C 75 % 1009.0 hPa 0.0 l/m 12.9 km/h (3 Bft) W 0.00 h 0 W/m 14.6 C 19.2 C 20.2 km/h (4 Bft)
16.08.2007 06:00 18.9 C 77 % 1009.7 hPa 0.0 l/m 8.6 km/h (2 Bft) W 0.00 h 0 W/m 14.6 C 18.9 C 12.9 km/h (3 Bft)
16.08.2007 07:00 18.7 C 77 % 1010.4 hPa 0.0 l/m 13.0 km/h (3 Bft) W 0.00 h 13 W/m 14.5 C 18.7 C 19.6 km/h (3 Bft)
16.08.2007 08:00 18.1 C 80 % 1011.2 hPa 0.0 l/m 7.5 km/h (2 Bft) W 0.00 h 34 W/m 14.6 C 18.1 C 11.5 km/h (2 Bft)
16.08.2007 09:00 17.6 C 83 % 1011.7 hPa 0.0 l/m 8.9 km/h (2 Bft) W 0.00 h 112 W/m 14.8 C 17.6 C 13.2 km/h (3 Bft)
16.08.2007 10:00 18.3 C 79 % 1012.5 hPa 0.0 l/m 7.4 km/h (2 Bft) W 0.17 h 262 W/m 14.6 C 18.3 C 11.7 km/h (2 Bft)
16.08.2007 11:00 19.5 C 74 % 1012.7 hPa 0.0 l/m 10.8 km/h (2 Bft) W 0.10 h 275 W/m 14.7 C 19.5 C 17.1 km/h (3 Bft)
16.08.2007 12:00 18.4 C 76 % 1013.2 hPa 0.0 l/m 11.0 km/h (2 Bft) W 0.00 h 228 W/m 14.2 C 18.4 C 16.7 km/h (3 Bft)
16.08.2007 13:00 19.6 C 74 % 1013.7 hPa 0.0 l/m 9.5 km/h (2 Bft) W 0.07 h 345 W/m 14.8 C 19.6 C 15.2 km/h (3 Bft)
16.08.2007 14:00 19.0 C 74 % 1014.1 hPa 0.0 l/m 14.6 km/h (3 Bft) W 0.07 h 275 W/m 14.2 C 19.0 C 22.2 km/h (4 Bft)
16.08.2007 15:00 19.3 C 67 % 1014.4 hPa 0.0 l/m 16.6 km/h (3 Bft) W 0.00 h 214 W/m 13.0 C 19.3 C 25.3 km/h (4 Bft)
16.08.2007 16:00 18.9 C 66 % 1015.2 hPa 0.0 l/m 15.0 km/h (3 Bft) W 0.00 h 172 W/m 12.5 C 18.9 C 22.6 km/h (4 Bft)
16.08.2007 17:00 19.6 C 64 % 1015.4 hPa 0.0 l/m 11.8 km/h (2 Bft) W 0.23 h 249 W/m 12.6 C 19.6 C 18.2 km/h (3 Bft)
16.08.2007 18:00 19.2 C 64 % 1015.8 hPa 0.0 l/m 10.5 km/h (2 Bft) W 0.02 h 150 W/m 12.2 C 19.2 C 16.2 km/h (3 Bft)
16.08.2007 19:00 18.7 C 66 % 1016.2 hPa 0.0 l/m 4.7 km/h (1 Bft) W 0.02 h 47 W/m 12.2 C 18.7 C 7.5 km/h (2 Bft)
16.08.2007 20:00 18.1 C 67 % 1016.9 hPa 0.0 l/m 2.8 km/h (1 Bft) W 0.00 h 9 W/m 11.7 C 18.1 C 5.3 km/h (1 Bft)
16.08.2007 21:00 17.4 C 72 % 1017.3 hPa 0.0 l/m 1.0 km/h (0 Bft) W 0.00 h 0 W/m 12.2 C 17.4 C 2.5 km/h (1 Bft)
16.08.2007 22:00 16.9 C 80 % 1017.8 hPa 0.0 l/m 1.5 km/h (1 Bft) S-SO 0.00 h 0 W/m 13.5 C 16.9 C 3.6 km/h (1 Bft)
16.08.2007 23:00 16.4 C 85 % 1018.2 hPa 0.0 l/m 0.5 km/h (0 Bft) S-SO 0.00 h 0 W/m 13.8 C 16.4 C 2.1 km/h (1 Bft)
17.08.2007 00:00 16.0 C 87 % 1018.6 hPa 0.0 l/m 0.5 km/h (0 Bft) SW 0.00 h 0 W/m 13.8 C 16.0 C 1.7 km/h (1 Bft)
17.08.2007 01:00 15.7 C 89 % 1018.8 hPa 0.0 l/m 0.3 km/h (0 Bft) S-SO 0.00 h 0 W/m 13.8 C 15.7 C 1.2 km/h (1 Bft)
17.08.2007 02:00 15.5 C 90 % 1018.8 hPa 0.0 l/m 0.4 km/h (0 Bft) S-SO 0.00 h 0 W/m 13.8 C 15.5 C 1.7 km/h (1 Bft)
17.08.2007 03:00 15.4 C 89 % 1018.9 hPa 0.0 l/m 0.1 km/h (0 Bft) SO 0.00 h 0 W/m 13.6 C 15.4 C 1.0 km/h (0 Bft)
17.08.2007 04:00 15.3 C 89 % 1018.9 hPa 0.0 l/m 0.4 km/h (0 Bft) S-SO 0.00 h 0 W/m 13.4 C 15.3 C 1.2 km/h (1 Bft)
17.08.2007 05:00 14.5 C 91 % 1019.0 hPa 0.0 l/m 0.3 km/h (0 Bft) S-SO 0.00 h 0 W/m 13.0 C 14.5 C 1.1 km/h (1 Bft)
17.08.2007 06:00 13.8 C 95 % 1019.2 hPa 0.0 l/m 1.8 km/h (1 Bft) S-SO 0.00 h 11 W/m 12.9 C 13.8 C 3.0 km/h (1 Bft)
17.08.2007 07:00 14.2 C 93 % 1019.2 hPa 0.0 l/m 0.6 km/h (0 Bft) O-SO 0.12 h 62 W/m 13.2 C 14.2 C 1.4 km/h (1 Bft)
17.08.2007 08:00 15.8 C 88 % 1019.2 hPa 0.0 l/m 0.4 km/h (0 Bft) O-SO 0.88 h 241 W/m 13.8 C 15.8 C 1.5 km/h (1 Bft)
17.08.2007 09:00 17.6 C 78 % 1019.1 hPa 0.0 l/m 0.9 km/h (0 Bft) SO 1.00 h 434 W/m 13.7 C 17.6 C 2.2 km/h (1 Bft)
17.08.2007 10:00 19.0 C 71 % 1019.1 hPa 0.0 l/m 1.5 km/h (1 Bft) W-SW 0.82 h 536 W/m 13.6 C 19.0 C 3.8 km/h (1 Bft)
17.08.2007 11:00 19.3 C 68 % 1019.0 hPa 0.0 l/m 2.0 km/h (1 Bft) W 0.25 h 352 W/m 13.2 C 19.3 C 4.0 km/h (1 Bft)
17.08.2007 12:00 19.0 C 66 % 1019.1 hPa 0.0 l/m 4.6 km/h (1 Bft) W 0.00 h 333 W/m 12.5 C 19.0 C 7.3 km/h (2 Bft)
17.08.2007 13:00 19.6 C 63 % 1019.0 hPa 0.0 l/m 5.2 km/h (1 Bft) W 0.15 h 356 W/m 12.3 C 19.6 C 8.6 km/h (2 Bft)
17.08.2007 14:00 19.0 C 67 % 1019.1 hPa 0.0 l/m 3.5 km/h (1 Bft) W 0.00 h 250 W/m 12.6 C 19.0 C 6.6 km/h (2 Bft)
17.08.2007 15:00 19.2 C 63 % 1019.1 hPa 0.0 l/m 10.2 km/h (2 Bft) W 0.07 h 276 W/m 12.0 C 19.2 C 16.1 km/h (3 Bft)
17.08.2007 16:00 18.9 C 63 % 1019.2 hPa 0.0 l/m 4.6 km/h (1 Bft) W-NW 0.07 h 289 W/m 11.6 C 18.9 C 7.5 km/h (2 Bft)
17.08.2007 17:00 19.5 C 61 % 1019.2 hPa 0.0 l/m 3.8 km/h (1 Bft) W 0.35 h 275 W/m 11.8 C 19.5 C 6.0 km/h (2 Bft)
17.08.2007 18:00 20.0 C 59 % 1019.2 hPa 0.0 l/m 10.3 km/h (2 Bft) W 0.50 h 219 W/m 11.8 C 20.0 C 15.3 km/h (3 Bft)
17.08.2007 19:00 19.2 C 63 % 1019.5 hPa 0.0 l/m 6.1 km/h (2 Bft) W 0.47 h 106 W/m 12.0 C 19.2 C 9.2 km/h (2 Bft)
17.08.2007 20:00 17.9 C 65 % 1019.8 hPa 0.0 l/m 2.4 km/h (1 Bft) W 0.00 h 16 W/m 11.1 C 17.9 C 4.0 km/h (1 Bft)
17.08.2007 21:00 17.1 C 71 % 1020.2 hPa 0.0 l/m 0.6 km/h (0 Bft) S 0.00 h 0 W/m 11.7 C 17.1 C 1.5 km/h (1 Bft)
17.08.2007 22:00 16.4 C 75 % 1020.5 hPa 0.0 l/m 0.0 km/h (0 Bft) N 0.00 h 0 W/m 12.0 C 16.4 C 0.3 km/h (0 Bft)
17.08.2007 23:00 15.7 C 79 % 1020.7 hPa 0.0 l/m 0.1 km/h (0 Bft) SW 0.00 h 0 W/m 12.1 C 15.7 C 0.5 km/h (0 Bft)
18.08.2007 00:00 15.2 C 84 % 1020.4 hPa 0.0 l/m 0.0 km/h (0 Bft) SW 0.00 h 0 W/m 12.5 C 15.2 C 0.1 km/h (0 Bft)
18.08.2007 01:00 14.8 C 85 % 1020.2 hPa 0.0 l/m 0.1 km/h (0 Bft) SW 0.00 h 0 W/m 12.4 C 14.8 C 0.3 km/h (0 Bft)
18.08.2007 02:00 14.4 C 87 % 1019.9 hPa 0.0 l/m 0.2 km/h (0 Bft) SW 0.00 h 0 W/m 12.2 C 14.4 C 0.7 km/h (0 Bft)
18.08.2007 03:00 14.0 C 88 % 1019.7 hPa 0.0 l/m 0.0 km/h (0 Bft) SW 0.00 h 0 W/m 12.0 C 14.0 C 0.2 km/h (0 Bft)
18.08.2007 04:00 13.4 C 91 % 1019.3 hPa 0.0 l/m 0.0 km/h (0 Bft) N 0.00 h 0 W/m 11.9 C 13.4 C 0.1 km/h (0 Bft)
18.08.2007 05:00 13.0 C 92 % 1018.9 hPa 0.0 l/m 0.2 km/h (0 Bft) W-SW 0.00 h 0 W/m 11.7 C 13.0 C 0.8 km/h (0 Bft)
18.08.2007 06:00 12.5 C 94 % 1018.8 hPa 0.0 l/m 0.1 km/h (0 Bft) W-SW 0.00 h 15 W/m 11.5 C 12.5 C 0.7 km/h (0 Bft)
18.08.2007 07:00 12.6 C 93 % 1018.8 hPa 0.0 l/m 0.3 km/h (0 Bft) W-NW 0.00 h 48 W/m 11.5 C 12.6 C 1.1 km/h (1 Bft)
18.08.2007 08:00 13.3 C 90 % 1018.7 hPa 0.0 l/m 0.7 km/h (0 Bft) W-NW 0.28 h 146 W/m 11.7 C 13.3 C 2.0 km/h (1 Bft)
18.08.2007 09:00 15.8 C 80 % 1018.3 hPa 0.0 l/m 0.8 km/h (0 Bft) W-SW 1.00 h 407 W/m 12.3 C 15.8 C 2.2 km/h (1 Bft)
18.08.2007 10:00 18.2 C 67 % 1017.7 hPa 0.0 l/m 2.1 km/h (1 Bft) O-SO 1.00 h 548 W/m 12.1 C 18.2 C 4.6 km/h (1 Bft)
18.08.2007 11:00 19.6 C 63 % 1017.0 hPa 0.0 l/m 3.7 km/h (1 Bft) O-SO 0.92 h 623 W/m 12.3 C 19.6 C 7.0 km/h (2 Bft)
18.08.2007 12:00 20.6 C 59 % 1016.5 hPa 0.0 l/m 3.1 km/h (1 Bft) O-SO 0.70 h 626 W/m 12.4 C 20.6 C 6.3 km/h (2 Bft)
18.08.2007 13:00 21.0 C 57 % 1015.7 hPa 0.0 l/m 3.4 km/h (1 Bft) SO 0.50 h 526 W/m 12.1 C 21.0 C 6.7 km/h (2 Bft)
18.08.2007 14:00 21.8 C 55 % 1015.3 hPa 0.0 l/m 2.9 km/h (1 Bft) N-NO 0.60 h 605 W/m 12.3 C 21.8 C 5.7 km/h (1 Bft)
18.08.2007 15:00 22.0 C 52 % 1014.8 hPa 0.0 l/m 3.4 km/h (1 Bft) O-SO 0.47 h 480 W/m 11.5 C 22.0 C 6.2 km/h (2 Bft)
18.08.2007 16:00 22.5 C 49 % 1014.4 hPa 0.0 l/m 3.7 km/h (1 Bft) O-SO 0.90 h 557 W/m 11.1 C 22.5 C 6.4 km/h (2 Bft)
18.08.2007 17:00 23.0 C 47 % 1014.0 hPa 0.0 l/m 2.6 km/h (1 Bft) O-SO 1.00 h 457 W/m 11.0 C 23.0 C 4.9 km/h (1 Bft)
18.08.2007 18:00 22.4 C 48 % 1013.8 hPa 0.0 l/m 2.7 km/h (1 Bft) O-SO 1.00 h 271 W/m 10.6 C 22.4 C 4.7 km/h (1 Bft)
18.08.2007 19:00 21.4 C 53 % 1013.4 hPa 0.0 l/m 3.6 km/h (1 Bft) O-SO 0.72 h 107 W/m 11.5 C 21.4 C 5.3 km/h (1 Bft)
18.08.2007 20:00 19.2 C 65 % 1013.2 hPa 0.0 l/m 1.3 km/h (1 Bft) O-SO 0.00 h 13 W/m 12.4 C 19.2 C 1.9 km/h (1 Bft)
18.08.2007 21:00 16.7 C 78 % 1013.5 hPa 0.0 l/m 0.0 km/h (0 Bft) N 0.00 h 0 W/m 12.7 C 16.7 C 0.0 km/h (0 Bft)
18.08.2007 22:00 15.2 C 84 % 1013.6 hPa 0.0 l/m 0.0 km/h (0 Bft) N 0.00 h 0 W/m 12.5 C 15.2 C 0.0 km/h (0 Bft)
18.08.2007 23:00 14.3 C 88 % 1013.5 hPa 0.0 l/m 0.0 km/h (0 Bft) N 0.00 h 0 W/m 12.3 C 14.3 C 0.0 km/h (0 Bft)
19.08.2007 00:00 13.6 C 90 % 1013.3 hPa 0.0 l/m 0.0 km/h (0 Bft) N 0.00 h 0 W/m 12.0 C 13.6 C 0.0 km/h (0 Bft)
19.08.2007 01:00 12.9 C 93 % 1013.1 hPa 0.0 l/m 0.0 km/h (0 Bft) N 0.00 h 0 W/m 11.8 C 12.9 C 0.0 km/h (0 Bft)
19.08.2007 02:00 12.6 C 93 % 1013.0 hPa 0.0 l/m 0.0 km/h (0 Bft) N 0.00 h 0 W/m 11.5 C 12.6 C 0.0 km/h (0 Bft)
19.08.2007 03:00 12.1 C 94 % 1012.9 hPa 0.0 l/m 0.0 km/h (0 Bft) N 0.00 h 0 W/m 11.2 C 12.1 C 0.0 km/h (0 Bft)
19.08.2007 04:00 11.8 C 96 % 1012.8 hPa 0.0 l/m 0.0 km/h (0 Bft) N 0.00 h 0 W/m 11.1 C 11.8 C 0.0 km/h (0 Bft)
19.08.2007 05:00 11.5 C 96 % 1012.7 hPa 0.0 l/m 0.0 km/h (0 Bft) N 0.00 h 0 W/m 10.8 C 11.5 C 0.0 km/h (0 Bft)
19.08.2007 06:00 11.2 C 97 % 1013.1 hPa 0.0 l/m 2.4 km/h (1 Bft) O-SO 0.00 h 13 W/m 10.8 C 11.2 C 3.3 km/h (1 Bft)
19.08.2007 07:00 11.8 C 96 % 1012.9 hPa 0.0 l/m 0.1 km/h (0 Bft) O-SO 0.02 h 52 W/m 11.2 C 11.8 C 0.6 km/h (0 Bft)
19.08.2007 08:00 13.6 C 90 % 1012.8 hPa 0.0 l/m 0.2 km/h (0 Bft) O-SO 0.98 h 240 W/m 12.0 C 13.6 C 0.8 km/h (0 Bft)
19.08.2007 09:00 16.1 C 81 % 1012.5 hPa 0.0 l/m 0.6 km/h (0 Bft) S 0.90 h 407 W/m 12.8 C 16.1 C 1.3 km/h (1 Bft)
19.08.2007 10:00 18.2 C 75 % 1012.2 hPa 0.0 l/m 1.3 km/h (1 Bft) W 0.73 h 488 W/m 13.7 C 18.2 C 3.0 km/h (1 Bft)
19.08.2007 11:00 19.6 C 72 % 1012.0 hPa 0.0 l/m 3.2 km/h (1 Bft) W-SW 0.32 h 399 W/m 14.3 C 19.6 C 5.6 km/h (1 Bft)
19.08.2007 12:00 20.4 C 65 % 1011.8 hPa 0.0 l/m 7.4 km/h (2 Bft) W-NW 0.37 h 554 W/m 13.6 C 20.4 C 11.1 km/h (2 Bft)
19.08.2007 13:00 22.1 C 55 % 1011.2 hPa 0.0 l/m 7.2 km/h (2 Bft) W-NW 1.00 h 772 W/m 12.7 C 22.1 C 11.3 km/h (2 Bft)
19.08.2007 14:00 23.3 C 52 % 1010.4 hPa 0.0 l/m 6.8 km/h (2 Bft) W 1.00 h 753 W/m 12.9 C 23.3 C 10.8 km/h (2 Bft)
19.08.2007 15:00 23.9 C 51 % 1010.1 hPa 0.0 l/m 5.7 km/h (1 Bft) W-NW 0.90 h 665 W/m 13.3 C 23.9 C 8.7 km/h (2 Bft)
19.08.2007 16:00 24.4 C 53 % 1009.6 hPa 0.0 l/m 3.4 km/h (1 Bft) W-NW 0.88 h 579 W/m 14.0 C 24.4 C 5.8 km/h (2 Bft)
19.08.2007 17:00 24.1 C 52 % 1009.3 hPa 0.0 l/m 7.3 km/h (2 Bft) W-NW 0.95 h 436 W/m 13.5 C 24.1 C 11.2 km/h (2 Bft)
19.08.2007 18:00 23.7 C 53 % 1009.0 hPa 0.0 l/m 5.1 km/h (1 Bft) W-NW 0.95 h 271 W/m 13.5 C 23.7 C 7.9 km/h (2 Bft)
19.08.2007 19:00 21.5 C 61 % 1008.8 hPa 0.0 l/m 0.4 km/h (0 Bft) W-NW 0.00 h 25 W/m 13.7 C 21.5 C 0.9 km/h (0 Bft)
19.08.2007 20:00 17.6 C 86 % 1009.6 hPa 3.4 l/m 3.5 km/h (1 Bft) W-NW 0.08 h 19 W/m 15.2 C 17.6 C 5.9 km/h (2 Bft)
19.08.2007 21:00 16.3 C 95 % 1010.2 hPa 0.2 l/m 2.3 km/h (1 Bft) O-SO 0.00 h 0 W/m 15.5 C 16.3 C 3.9 km/h (1 Bft)
19.08.2007 22:00 15.9 C 97 % 1010.3 hPa 0.0 l/m 0.0 km/h (0 Bft) N 0.00 h 0 W/m 15.5 C 15.9 C 0.3 km/h (0 Bft)
19.08.2007 23:00 15.4 C 98 % 1010.4 hPa 0.0 l/m 1.3 km/h (1 Bft) W-NW 0.00 h 0 W/m 15.0 C 15.4 C 2.6 km/h (1 Bft)
Min-Datum _ 19.08.07 15.08.07 15.08.07 - 13.08.07 - - - 18.08.07 19.08.07 13.08.07
_ Min-Zeit 06:15 15:30 20:15 - 00:00 - - - 18:27 06:15 00:01
Minimum _ 10.9 C 41 % 1005.5 hPa - 0.0 km/h (0 Bft) - - - 9.0 C 10.9 C 0.0 km/h (0 Bft)
Max-Datum _ 15.08.07 14.08.07 17.08.07 19.08.07 16.08.07 - 13.08.07 19.08.07 15.08.07 15.08.07 16.08.07
_ Max-Zeit 16:05 02:05 23:15 20:14 04:03 - 08:01 12:20 15:58 16:05 04:02
Maximum _ 32.1 C 100 % 1020.7 hPa 3.4 l/m 33.9 km/h
W (5 Bft)
- 0.02 h 1074 W/m 21.3 C 32.1 C 50.4 km/h
W (7 Bft)
Durchschnitt _ 19.4 C 76 % 1013.2 hPa #5.8 l/m 3.1 km/h (1 Bft) W #50:00 h 332 W/m 14.7 C 19.4 C 5.2 km/h (1 Bft)
© Kaiko 2007